Time;durP1;ratioP1;P1;durP2;ratioP2;P2;SDS_P1;SDS_P2;PMS_P1;PMS_P2;Temp;Humidity;BMP_temperature;BMP_pressure;BME280_temperature;BME280_humidity;BME280_pressure;Samples;Min_cycle;Max_cycle;Signal;HPM_P1;HPM_P2
2021/08/14 00:00:27;;;;;;;;;;;;;;;21.74;83.15;96617.41;1041574;28;19913;-45
2021/08/14 00:00:57;;;;;;;;;;;;;;;21.71;83.29;96616.06;1037177;28;20259;-45
2021/08/14 00:01:28;;;;;;;;;;;;;;;21.69;83.67;96612.03;1037158;28;19913;-48
2021/08/14 00:01:58;;;;;;;;;;;;;;;21.67;83.52;96614.13;1037093;28;19910;-47
2021/08/14 00:02:28;;;;;;;;;;;;;;;21.67;83.63;96616.81;1037091;28;19909;-48
2021/08/14 00:02:59;;;;;;;;;;;;;;;21.64;83.68;96616.25;1041518;28;19912;-49
2021/08/14 00:03:30;;;;;;;;;;;;;;;21.64;83.86;96613.59;1041555;28;19916;-45
2021/08/14 00:04:00;;;;;;;;;;;;;;;21.63;84.15;96616.53;1041559;28;19952;-49
2021/08/14 00:04:30;;;;;;;;;;;;;;;21.64;84.17;96612.78;1041320;28;20289;-46
2021/08/14 00:05:01;;;;;;;;;;;;;;;21.64;83.85;96612.78;1041448;28;19916;-45
2021/08/14 00:05:31;;;;;;;;;;;;;;;21.62;83.82;96621.09;1041364;28;19966;-46
2021/08/14 00:06:01;;;;;;;;;;;;;;;21.58;83.74;96617.28;1041469;28;19909;-45
2021/08/14 00:06:32;;;;;;;;;;;;;;;21.60;83.77;96623.19;1041438;28;19917;-48
2021/08/14 00:07:02;;;;;;;;;;;;;;;21.58;83.82;96621.84;1041479;28;20328;-46
2021/08/14 00:07:32;;;;;;;;;;;;;;;21.49;84.35;96618.78;1041235;28;19909;-49
2021/08/14 00:08:03;;;;;;;;;;;;;;;21.51;84.39;96632.75;1041388;28;19910;-48
2021/08/14 00:08:33;;;;;;;;;;;;;;;21.48;84.45;96623.34;1041566;28;19931;-46
2021/08/14 00:09:04;;;;;;;;;;;;;;;21.52;84.43;96620.97;1041356;28;19909;-45
2021/08/14 00:09:34;;;;;;;;;;;;;;;21.47;84.46;96619.03;1041488;28;20277;-49
2021/08/14 00:10:06;;;;;;;;;;;;;;;21.46;84.29;96617.41;1041436;28;19916;-49
2021/08/14 00:10:36;;;;;;;;;;;;;;;21.45;84.29;96615.81;1032852;28;20271;-48
2021/08/14 00:11:06;;;;;;;;;;;;;;;21.48;84.51;96617.16;1029004;28;19910;-45
2021/08/14 00:11:36;;;;;;;;;;;;;;;21.50;84.66;96611.56;1028950;28;19958;-46
2021/08/14 00:12:07;;;;;;;;;;;;;;;21.59;83.84;96605.50;1029240;28;20216;-48
2021/08/14 00:12:37;;;;;;;;;;;;;;;21.57;83.93;96604.94;1037101;28;19921;-46
2021/08/14 00:13:08;;;;;;;;;;;;;;;21.62;83.52;96602.31;1041464;28;19909;-47
2021/08/14 00:13:38;;;;;;;;;;;;;;;21.69;83.29;96604.00;1036970;28;19959;-48
2021/08/14 00:14:08;;;;;;;;;;;;;;;21.68;83.39;96608.50;1037020;28;20334;-48
2021/08/14 00:14:38;;;;;;;;;;;;;;;21.67;83.23;96608.78;1036863;28;19916;-48
2021/08/14 00:15:09;;;;;;;;;;;;;;;21.69;83.17;96604.00;1036977;28;19910;-47
2021/08/14 00:15:39;;;;;;;;;;;;;;;21.72;82.94;96606.94;1041354;28;20434;-49
2021/08/14 00:16:10;;;;;;;;;;;;;;;21.77;82.77;96607.03;1041413;28;20250;-46
2021/08/14 00:16:40;;;;;;;;;;;;;;;21.79;82.33;96615.59;1041441;28;19913;-49
2021/08/14 00:17:11;;;;;;;;;;;;;;;21.76;82.37;96618.00;1041492;28;19920;-46
2021/08/14 00:17:41;;;;;;;;;;;;;;;21.75;82.44;96619.03;1041298;28;19909;-48
2021/08/14 00:18:11;;;;;;;;;;;;;;;21.74;82.35;96618.25;1041327;28;19909;-47
2021/08/14 00:18:42;;;;;;;;;;;;;;;21.70;82.73;96613.66;1041385;28;19916;-47
2021/08/14 00:19:12;;;;;;;;;;;;;;;21.74;82.68;96610.22;1036942;28;20397;-48
2021/08/14 00:19:42;;;;;;;;;;;;;;;21.72;82.91;96612.31;1032859;28;19944;-47
2021/08/14 00:20:13;;;;;;;;;;;;;;;21.67;83.05;96616.81;1032845;28;19909;-48
2021/08/14 00:20:43;;;;;;;;;;;;;;;21.63;83.64;96620.00;1032939;28;20005;-47
2021/08/14 00:21:13;;;;;;;;;;;;;;;21.58;83.99;96609.25;1036987;28;19992;-51
2021/08/14 00:21:43;;;;;;;;;;;;;;;21.59;83.84;96613.56;1041272;28;19909;-49
2021/08/14 00:22:14;;;;;;;;;;;;;;;21.62;83.64;96614.91;1041373;28;19909;-47
2021/08/14 00:22:44;;;;;;;;;;;;;;;21.68;83.47;96613.88;1041409;28;19910;-47
2021/08/14 00:23:14;;;;;;;;;;;;;;;21.74;82.91;96618.25;1037002;28;19913;-48
2021/08/14 00:23:45;;;;;;;;;;;;;;;21.72;82.76;96609.63;1032935;28;20386;-46
2021/08/14 00:24:19;;;;;;;;;;;;;;;21.85;82.34;96615.63;1032969;28;19910;-45
2021/08/14 00:24:49;;;;;;;;;;;;;;;21.81;82.35;96616.16;1032862;28;19906;-45
2021/08/14 00:25:19;;;;;;;;;;;;;;;21.75;83.00;96621.72;1037801;28;19941;-45
2021/08/14 00:25:50;;;;;;;;;;;;;;;21.74;82.74;96620.94;1041579;28;19905;-49
2021/08/14 00:26:20;;;;;;;;;;;;;;;21.73;82.97;96618.50;1041334;28;19909;-46
2021/08/14 00:26:51;;;;;;;;;;;;;;;21.70;82.95;96622.50;1041419;28;19913;-48
2021/08/14 00:27:22;;;;;;;;;;;;;;;21.66;82.81;96618.69;1041338;28;20035;-48
2021/08/14 00:27:52;;;;;;;;;;;;;;;21.69;82.89;96614.69;1041245;28;19917;-45
2021/08/14 00:28:22;;;;;;;;;;;;;;;21.72;82.61;96617.69;1041367;28;19913;-47
2021/08/14 00:28:52;;;;;;;;;;;;;;;21.72;82.67;96616.88;1041202;28;20417;-46
2021/08/14 00:29:23;;;;;;;;;;;;;;;21.72;82.43;96612.31;1037062;28;19913;-48
2021/08/14 00:29:53;;;;;;;;;;;;;;;21.72;82.67;96609.63;1036963;28;19921;-44
2021/08/14 00:30:23;;;;;;;;;;;;;;;21.70;82.86;96609.09;1037094;28;19953;-45
2021/08/14 00:30:54;;;;;;;;;;;;;;;21.76;82.62;96607.28;1036935;28;19964;-47
2021/08/14 00:31:24;;;;;;;;;;;;;;;21.75;82.28;96608.31;1041443;28;20393;-45
2021/08/14 00:31:54;;;;;;;;;;;;;;;21.77;82.18;96611.56;1041458;28;19921;-47
2021/08/14 00:32:25;;;;;;;;;;;;;;;21.86;81.93;96614.56;1041434;28;19921;-45
2021/08/14 00:32:55;;;;;;;;;;;;;;;21.90;81.75;96611.13;1041223;28;20380;-49
2021/08/14 00:33:25;;;;;;;;;;;;;;;21.89;81.71;96609.50;1041360;28;19924;-46
2021/08/14 00:33:55;;;;;;;;;;;;;;;21.82;81.65;96601.69;1041410;28;19909;-46
2021/08/14 00:34:26;;;;;;;;;;;;;;;21.74;82.14;96599.50;1036740;28;20366;-51
2021/08/14 00:34:56;;;;;;;;;;;;;;;21.75;82.41;96600.28;1036978;28;20303;-47
2021/08/14 00:35:26;;;;;;;;;;;;;;;21.78;82.25;96602.47;1036940;28;19913;-46
2021/08/14 00:35:57;;;;;;;;;;;;;;;21.78;82.17;96594.41;1037005;28;19914;-46
2021/08/14 00:36:27;;;;;;;;;;;;;;;21.86;81.94;96595.81;1041326;28;19913;-48
2021/08/14 00:36:57;;;;;;;;;;;;;;;21.91;81.56;96587.81;1041186;28;20386;-45
2021/08/14 00:37:28;;;;;;;;;;;;;;;21.91;81.39;96599.34;1041176;28;19913;-46
2021/08/14 00:37:58;;;;;;;;;;;;;;;21.87;81.62;96590.19;1041295;28;19901;-45
2021/08/14 00:38:28;;;;;;;;;;;;;;;21.84;81.79;96596.06;1041428;28;20243;-46
2021/08/14 00:38:59;;;;;;;;;;;;;;;21.86;81.78;96596.63;1041272;28;19956;-44
2021/08/14 00:39:30;;;;;;;;;;;;;;;21.86;81.79;96598.50;1041333;28;19916;-45
2021/08/14 00:40:00;;;;;;;;;;;;;;;21.82;82.04;96603.56;1041235;28;19912;-48
2021/08/14 00:40:30;;;;;;;;;;;;;;;21.80;82.15;96605.69;1041382;28;19935;-47
2021/08/14 00:41:00;;;;;;;;;;;;;;;21.68;82.69;96599.69;1041401;28;19917;-49
2021/08/14 00:41:31;;;;;;;;;;;;;;;21.68;83.12;96602.34;1036763;28;19914;-47
2021/08/14 00:42:01;;;;;;;;;;;;;;;21.65;83.12;96599.13;1036924;28;19909;-47
2021/08/14 00:42:32;;;;;;;;;;;;;;;21.67;83.01;96604.25;1036879;28;19916;-46
2021/08/14 00:43:02;;;;;;;;;;;;;;;21.59;83.43;96608.19;1037049;28;19913;-47
2021/08/14 00:43:34;;;;;;;;;;;;;;;21.52;83.92;96604.91;1041238;28;20266;-45
2021/08/14 00:44:04;;;;;;;;;;;;;;;21.55;83.85;96603.59;1041251;28;19920;-49
2021/08/14 00:44:34;;;;;;;;;;;;;;;21.58;83.70;96605.75;1041039;28;19936;-46
2021/08/14 00:45:05;;;;;;;;;;;;;;;21.57;83.43;96612.97;1041265;28;19917;-48
2021/08/14 00:45:39;;;;;;;;;;;;;;;21.53;83.67;96605.69;1041331;28;19920;-47
2021/08/14 00:46:10;;;;;;;;;;;;;;;21.52;83.93;96612.13;1041242;28;19917;-46
2021/08/14 00:46:40;;;;;;;;;;;;;;;21.53;83.97;96609.22;1041367;28;19913;-47
2021/08/14 00:47:10;;;;;;;;;;;;;;;21.57;83.87;96606.81;1036977;28;19917;-47
2021/08/14 00:47:41;;;;;;;;;;;;;;;21.60;83.66;96604.44;1036681;28;19918;-48
2021/08/14 00:48:11;;;;;;;;;;;;;;;21.60;83.55;96598.28;1036884;28;19917;-49
2021/08/14 00:48:42;;;;;;;;;;;;;;;21.56;83.64;96600.66;1037044;28;19916;-48
2021/08/14 00:49:12;;;;;;;;;;;;;;;21.53;83.70;96594.97;1041363;28;20358;-49
2021/08/14 00:49:42;;;;;;;;;;;;;;;21.57;83.83;96602.25;1041291;28;19909;-49
2021/08/14 00:50:13;;;;;;;;;;;;;;;21.73;83.08;96591.69;1041413;28;20373;-47
2021/08/14 00:50:43;;;;;;;;;;;;;;;21.74;82.47;96595.97;1041251;28;19956;-44
2021/08/14 00:51:13;;;;;;;;;;;;;;;21.75;82.40;96602.97;1041253;28;19915;-44
2021/08/14 00:51:44;;;;;;;;;;;;;;;21.75;82.37;96597.59;1036851;28;19933;-44
2021/08/14 00:52:14;;;;;;;;;;;;;;;21.71;82.39;96597.31;1037079;28;19914;-44
2021/08/14 00:52:44;;;;;;;;;;;;;;;21.69;82.58;96595.94;1032909;28;19917;-44
2021/08/14 00:53:14;;;;;;;;;;;;;;;21.79;82.32;96601.41;1032905;28;19916;-45
2021/08/14 00:53:45;;;;;;;;;;;;;;;21.81;81.89;96593.91;1036783;28;19909;-45
2021/08/14 00:54:15;;;;;;;;;;;;;;;21.81;81.88;96600.06;1036818;28;19959;-44
2021/08/14 00:54:45;;;;;;;;;;;;;;;21.78;81.36;96597.09;1040735;28;19909;-44
2021/08/14 00:55:16;;;;;;;;;;;;;;;21.73;81.38;96597.88;1040500;28;20430;-45
2021/08/14 00:55:46;;;;;;;;;;;;;;;21.70;81.89;96601.06;1041344;28;19909;-45
2021/08/14 00:56:20;;;;;;;;;;;;;;;21.77;81.55;96596.28;1037032;28;19912;-44
2021/08/14 00:56:50;;;;;;;;;;;;;;;21.81;81.22;96600.06;1036867;28;19910;-44
2021/08/14 00:57:20;;;;;;;;;;;;;;;21.84;81.33;96596.06;1036913;28;19917;-45
2021/08/14 00:57:51;;;;;;;;;;;;;;;21.78;81.36;96594.41;1037462;28;19913;-45
2021/08/14 00:58:22;;;;;;;;;;;;;;;21.74;81.14;96590.63;1041064;28;19947;-45
2021/08/14 00:58:53;;;;;;;;;;;;;;;21.73;81.47;96592.50;1036860;28;19944;-45
2021/08/14 00:59:27;;;;;;;;;;;;;;;21.79;81.37;96590.69;1036967;28;20289;-43
2021/08/14 00:59:57;;;;;;;;;;;;;;;21.81;80.98;96593.91;1037158;28;19910;-43
2021/08/14 01:00:28;;;;;;;;;;;;;;;21.80;81.24;96594.97;1037591;28;20355;-44
2021/08/14 01:00:58;;;;;;;;;;;;;;;21.83;80.83;96597.13;1040817;28;19910;-45
2021/08/14 01:01:28;;;;;;;;;;;;;;;21.84;80.72;96596.06;1041095;28;20004;-44
2021/08/14 01:02:05;;;;;;;;;;;;;;;21.87;80.53;96598.25;1040931;28;20000;-44
2021/08/14 01:02:35;;;;;;;;;;;;;;;21.86;80.49;96593.13;1041223;28;19910;-44
2021/08/14 01:03:06;;;;;;;;;;;;;;;21.90;80.31;96588.88;1041163;28;19905;-45
2021/08/14 01:03:36;;;;;;;;;;;;;;;21.85;79.68;96592.34;1036773;28;19916;-44
2021/08/14 01:04:08;;;;;;;;;;;;;;;21.85;80.30;96589.66;1036849;28;19906;-45
2021/08/14 01:04:38;;;;;;;;;;;;;;;21.79;79.90;96594.16;1032689;28;19945;-44
2021/08/14 01:05:09;;;;;;;;;;;;;;;21.79;79.88;96590.69;1033177;28;20278;-43
2021/08/14 01:05:40;;;;;;;;;;;;;;;21.86;80.00;96593.94;1036910;28;20004;-45
2021/08/14 01:06:14;;;;;;;;;;;;;;;21.94;79.69;96593.47;1033015;28;20343;-44
2021/08/14 01:06:44;;;;;;;;;;;;;;;21.96;79.27;96594.03;1036946;28;19914;-44
2021/08/14 01:07:15;;;;;;;;;;;;;;;21.94;79.70;96593.47;1036901;28;20347;-44
2021/08/14 01:07:45;;;;;;;;;;;;;;;21.91;79.65;96595.84;1037219;28;19909;-46
2021/08/14 01:08:15;;;;;;;;;;;;;;;21.92;79.55;96594.78;1036832;28;20401;-44
2021/08/14 01:08:49;;;;;;;;;;;;;;;21.95;79.44;96595.06;1036867;28;19918;-44
2021/08/14 01:09:19;;;;;;;;;;;;;;;21.96;79.18;96590.53;1036848;28;19914;-44
2021/08/14 01:09:50;;;;;;;;;;;;;;;21.92;79.01;96595.59;1037323;28;20372;-44
2021/08/14 01:10:20;;;;;;;;;;;;;;;21.86;79.08;96601.19;1041195;28;19913;-44
2021/08/14 01:10:51;;;;;;;;;;;;;;;21.84;79.71;96596.06;1041196;28;19913;-44
2021/08/14 01:11:21;;;;;;;;;;;;;;;21.91;79.74;96587.81;1041154;28;19927;-44
2021/08/14 01:11:51;;;;;;;;;;;;;;;21.90;79.61;96591.56;1036918;28;20008;-44
2021/08/14 01:12:22;;;;;;;;;;;;;;;21.85;79.40;96592.34;1036815;28;19959;-44
2021/08/14 01:12:52;;;;;;;;;;;;;;;21.89;79.66;96589.94;1036681;28;19964;-45
2021/08/14 01:13:23;;;;;;;;;;;;;;;21.91;79.31;96587.81;1032858;28;19909;-44
2021/08/14 01:13:54;;;;;;;;;;;;;;;21.95;79.17;96594.28;1036754;28;19971;-44
2021/08/14 01:14:24;;;;;;;;;;;;;;;21.96;78.63;96591.34;1032578;28;19917;-45
2021/08/14 01:14:54;;;;;;;;;;;;;;;21.93;78.67;96591.06;1033078;28;19921;-45
2021/08/14 01:15:24;;;;;;;;;;;;;;;21.93;78.88;96596.41;1041257;28;20302;-46
2021/08/14 01:15:55;;;;;;;;;;;;;;;21.91;78.42;96593.16;1041167;28;19909;-46
2021/08/14 01:16:26;;;;;;;;;;;;;;;21.80;78.83;96598.47;1041315;28;19913;-51
2021/08/14 01:16:56;;;;;;;;;;;;;;;21.85;79.37;96595.03;1041138;28;19901;-48
2021/08/14 01:17:26;;;;;;;;;;;;;;;21.78;78.62;96589.06;1041224;28;19912;-46
2021/08/14 01:17:57;;;;;;;;;;;;;;;21.67;79.35;96592.69;1032641;28;19952;-49
2021/08/14 01:18:27;;;;;;;;;;;;;;;21.80;79.54;96589.59;1032854;28;20005;-47
2021/08/14 01:18:58;;;;;;;;;;;;;;;21.89;78.80;96590.75;1032626;28;19937;-48
2021/08/14 01:19:28;;;;;;;;;;;;;;;21.92;78.74;96592.09;1032848;28;19913;-45
2021/08/14 01:19:58;;;;;;;;;;;;;;;21.94;78.68;96593.47;1036788;28;19905;-45
2021/08/14 01:20:28;;;;;;;;;;;;;;;21.87;78.76;96595.56;1041215;28;20301;-45
2021/08/14 01:20:59;;;;;;;;;;;;;;;21.86;78.41;96595.81;1036762;28;20530;-46
2021/08/14 01:21:30;;;;;;;;;;;;;;;21.80;78.44;96593.09;1036784;28;19909;-49
2021/08/14 01:22:03;;;;;;;;;;;;;;;21.78;78.76;96589.06;1036822;28;19929;-46
2021/08/14 01:22:33;;;;;;;;;;;;;;;21.81;79.09;96591.22;1037247;28;20346;-44
2021/08/14 01:23:03;;;;;;;;;;;;;;;21.84;79.02;96596.06;1041318;28;19901;-47
2021/08/14 01:23:34;;;;;;;;;;;;;;;21.83;78.60;96591.75;1041133;28;19906;-45
2021/08/14 01:24:04;;;;;;;;;;;;;;;21.77;78.49;96590.94;1041242;28;19912;-46
2021/08/14 01:24:34;;;;;;;;;;;;;;;21.72;78.15;96582.84;1040985;28;20274;-46
2021/08/14 01:25:05;;;;;;;;;;;;;;;21.69;78.38;96587.91;1041116;28;19905;-49
2021/08/14 01:25:36;;;;;;;;;;;;;;;21.75;78.97;96589.56;1041172;28;19910;-48
2021/08/14 01:26:07;;;;;;;;;;;;;;;21.82;78.67;96588.28;1041114;28;19909;-47
2021/08/14 01:26:46;;;;;;;;;;;;;;;21.89;78.58;96584.59;1041213;28;19906;-45
2021/08/14 01:27:17;;;;;;;;;;;;;;;21.92;78.35;96584.06;1036649;28;20362;-48
2021/08/14 01:27:47;;;;;;;;;;;;;;;21.90;78.04;96584.31;1036624;28;20052;-44
2021/08/14 01:28:17;;;;;;;;;;;;;;;21.88;77.61;96594.50;1036777;28;19914;-45
2021/08/14 01:28:48;;;;;;;;;;;;;;;21.85;77.58;96594.19;1036792;28;20260;-45
2021/08/14 01:29:18;;;;;;;;;;;;;;;21.86;77.85;96590.47;1041152;28;20300;-49
2021/08/14 01:29:48;;;;;;;;;;;;;;;21.89;78.14;96589.94;1041182;28;19920;-48
2021/08/14 01:30:18;;;;;;;;;;;;;;;21.89;77.75;96590.75;1041190;28;19916;-47
2021/08/14 01:30:49;;;;;;;;;;;;;;;21.91;77.82;96599.34;1041200;28;19913;-48
2021/08/14 01:31:19;;;;;;;;;;;;;;;21.90;77.61;96592.38;1041147;28;19967;-47
2021/08/14 01:31:49;;;;;;;;;;;;;;;21.82;77.41;96593.66;1041175;28;19924;-45
2021/08/14 01:32:20;;;;;;;;;;;;;;;21.77;77.68;96595.47;1041186;28;19914;-45
2021/08/14 01:32:50;;;;;;;;;;;;;;;21.81;77.77;96591.22;1041184;28;19913;-48
2021/08/14 01:33:20;;;;;;;;;;;;;;;21.83;77.47;96592.59;1041183;28;19909;-48
2021/08/14 01:33:50;;;;;;;;;;;;;;;21.83;77.36;96591.75;1036766;28;19909;-48
2021/08/14 01:34:21;;;;;;;;;;;;;;;21.82;77.33;96593.66;1036515;28;19918;-45
2021/08/14 01:34:51;;;;;;;;;;;;;;;21.81;77.60;96589.34;1036809;28;19972;-49
2021/08/14 01:35:21;;;;;;;;;;;;;;;21.82;77.23;96596.31;1036863;28;20381;-48
2021/08/14 01:35:52;;;;;;;;;;;;;;;21.89;77.17;96596.09;1040859;28;19917;-46
2021/08/14 01:36:22;;;;;;;;;;;;;;;21.87;76.54;96592.88;1041063;28;19909;-45
2021/08/14 01:36:52;;;;;;;;;;;;;;;21.83;76.71;96586.41;1041170;28;19921;-45
2021/08/14 01:37:22;;;;;;;;;;;;;;;21.77;76.52;96598.97;1041061;28;19909;-47
2021/08/14 01:37:53;;;;;;;;;;;;;;;21.77;77.01;96588.25;1041142;28;19920;-47
2021/08/14 01:38:23;;;;;;;;;;;;;;;21.73;76.60;96581.78;1041088;28;19975;-46
2021/08/14 01:38:54;;;;;;;;;;;;;;;21.77;77.05;96584.75;1036618;28;19925;-45
2021/08/14 01:39:24;;;;;;;;;;;;;;;21.73;76.53;96578.31;1036697;28;19921;-46
2021/08/14 01:39:55;;;;;;;;;;;;;;;21.78;77.33;96583.69;1036736;28;20279;-46
2021/08/14 01:40:25;;;;;;;;;;;;;;;21.76;76.77;96591.19;1032579;28;19917;-45
2021/08/14 01:40:55;;;;;;;;;;;;;;;21.68;76.52;96588.97;1036740;28;19913;-49
2021/08/14 01:41:25;;;;;;;;;;;;;;;21.64;76.70;96584.09;1036702;28;20367;-48
2021/08/14 01:41:56;;;;;;;;;;;;;;;21.66;77.22;96589.22;1036745;28;19914;-45
2021/08/14 01:42:26;;;;;;;;;;;;;;;21.69;77.30;96590.59;1032575;28;19917;-48
2021/08/14 01:42:57;;;;;;;;;;;;;;;21.74;77.61;96579.91;1028713;28;19910;-49
2021/08/14 01:43:27;;;;;;;;;;;;;;;21.67;76.86;96590.84;1028711;28;19914;-46
2021/08/14 01:44:00;;;;;;;;;;;;;;;21.68;77.06;96595.13;1028696;28;19914;-45
2021/08/14 01:44:31;;;;;;;;;;;;;;;21.68;76.88;96589.75;1036849;28;19913;-46
2021/08/14 01:45:01;;;;;;;;;;;;;;;21.64;76.92;96596.72;1040829;28;20354;-48
2021/08/14 01:45:31;;;;;;;;;;;;;;;21.64;77.10;96602.06;1040922;28;20219;-45
2021/08/14 01:46:01;;;;;;;;;;;;;;;21.61;76.73;96595.34;1041161;28;19952;-45
2021/08/14 01:46:34;;;;;;;;;;;;;;;21.63;77.01;96593.19;1041089;28;19967;-45
2021/08/14 01:47:04;;;;;;;;;;;;;;;21.58;76.86;96597.72;1041064;28;20366;-45
2021/08/14 01:47:35;;;;;;;;;;;;;;;21.64;77.14;96596.72;1040999;28;19913;-45
2021/08/14 01:48:05;;;;;;;;;;;;;;;21.72;77.28;96595.44;1041246;28;19909;-45
2021/08/14 01:48:35;;;;;;;;;;;;;;;21.73;76.97;96592.50;1041129;28;19913;-49
2021/08/14 01:49:05;;;;;;;;;;;;;;;21.64;76.88;96588.66;1041096;28;19959;-49
2021/08/14 01:49:36;;;;;;;;;;;;;;;21.63;76.63;96590.53;1041053;28;19919;-48
2021/08/14 01:50:06;;;;;;;;;;;;;;;21.58;76.79;96584.34;1041066;28;19920;-49
2021/08/14 01:50:37;;;;;;;;;;;;;;;21.53;76.80;96589.63;1041039;28;19917;-48
2021/08/14 01:51:07;;;;;;;;;;;;;;;21.54;77.15;96581.34;1041057;28;20388;-49
2021/08/14 01:51:37;;;;;;;;;;;;;;;21.54;77.01;96585.91;1036605;28;19955;-48
2021/08/14 01:52:11;;;;;;;;;;;;;;;21.52;77.07;96580.00;1036690;28;19957;-47
2021/08/14 01:52:41;;;;;;;;;;;;;;;21.64;77.65;96589.47;1036696;28;19912;-48
2021/08/14 01:53:11;;;;;;;;;;;;;;;21.72;77.01;96587.41;1037040;28;20338;-48
2021/08/14 01:53:45;;;;;;;;;;;;;;;21.67;77.14;96584.66;1036694;28;19960;-47
2021/08/14 01:54:16;;;;;;;;;;;;;;;21.72;77.19;96587.41;1036473;28;19913;-48
2021/08/14 01:54:46;;;;;;;;;;;;;;;21.77;76.91;96588.25;1036738;28;19910;-47
2021/08/14 01:55:17;;;;;;;;;;;;;;;21.76;76.63;96591.19;1037309;28;19906;-49
2021/08/14 01:55:47;;;;;;;;;;;;;;;21.72;76.99;96596.22;1036699;28;19917;-49
2021/08/14 01:56:18;;;;;;;;;;;;;;;21.69;77.02;96587.91;1036658;28;19909;-47
2021/08/14 01:56:48;;;;;;;;;;;;;;;21.61;76.90;96583.81;1036661;28;19917;-46
2021/08/14 01:57:19;;;;;;;;;;;;;;;21.61;77.06;96581.94;1036808;28;19910;-49
2021/08/14 01:57:49;;;;;;;;;;;;;;;21.72;77.33;96590.88;1041074;28;19932;-45
2021/08/14 01:58:19;;;;;;;;;;;;;;;21.80;77.04;96594.97;1040997;28;19909;-44
2021/08/14 01:58:50;;;;;;;;;;;;;;;21.77;77.08;96590.94;1041256;28;19975;-44
2021/08/14 01:59:20;;;;;;;;;;;;;;;21.81;76.48;96588.53;1041121;28;19909;-45
2021/08/14 01:59:50;;;;;;;;;;;;;;;21.81;76.87;96585.88;1041108;28;20366;-46
2021/08/14 02:00:20;;;;;;;;;;;;;;;21.81;76.36;96585.88;1040995;28;19909;-44
2021/08/14 02:00:51;;;;;;;;;;;;;;;21.71;76.15;96593.81;1036620;28;19943;-45
2021/08/14 02:01:21;;;;;;;;;;;;;;;21.74;76.74;96588.78;1036654;28;19909;-45
2021/08/14 02:01:51;;;;;;;;;;;;;;;21.74;76.95;96587.94;1036658;28;19910;-45
2021/08/14 02:02:22;;;;;;;;;;;;;;;21.74;76.88;96586.09;1036654;28;19992;-45
2021/08/14 02:02:52;;;;;;;;;;;;;;;21.79;76.87;96588.00;1040926;28;19981;-46
2021/08/14 02:03:22;;;;;;;;;;;;;;;21.76;76.57;96585.84;1040752;28;19910;-45
2021/08/14 02:03:52;;;;;;;;;;;;;;;21.71;76.13;96581.25;1040833;28;19916;-45
2021/08/14 02:04:23;;;;;;;;;;;;;;;21.70;76.82;96586.84;1040847;28;19944;-44
2021/08/14 02:04:53;;;;;;;;;;;;;;;21.68;76.70;96586.28;1041157;28;19917;-44
2021/08/14 02:05:23;;;;;;;;;;;;;;;21.70;76.82;96584.19;1041048;28;19909;-44
2021/08/14 02:05:54;;;;;;;;;;;;;;;21.68;76.73;96581.72;1036659;28;19909;-48
2021/08/14 02:06:25;;;;;;;;;;;;;;;21.69;76.88;96580.66;1036280;28;19944;-45
2021/08/14 02:06:55;;;;;;;;;;;;;;;21.68;76.72;96578.25;1036583;28;19977;-45
2021/08/14 02:07:25;;;;;;;;;;;;;;;21.69;77.17;96582.53;1036624;28;19917;-45
2021/08/14 02:07:56;;;;;;;;;;;;;;;21.70;76.64;96584.19;1041020;28;19922;-44
2021/08/14 02:08:26;;;;;;;;;;;;;;;21.71;76.97;96583.09;1041036;28;19909;-45
2021/08/14 02:08:56;;;;;;;;;;;;;;;21.70;76.62;96586.84;1041172;28;19996;-44
2021/08/14 02:09:27;;;;;;;;;;;;;;;21.66;76.90;96589.22;1041069;28;20007;-44
2021/08/14 02:09:57;;;;;;;;;;;;;;;21.62;76.70;96578.22;1041106;28;19916;-45
2021/08/14 02:10:27;;;;;;;;;;;;;;;21.63;76.94;96587.03;1036519;28;19920;-44
2021/08/14 02:10:58;;;;;;;;;;;;;;;21.61;77.03;96581.94;1036723;28;19945;-45
2021/08/14 02:11:29;;;;;;;;;;;;;;;21.61;76.68;96591.84;1036670;28;20259;-44
2021/08/14 02:11:59;;;;;;;;;;;;;;;21.60;76.89;96592.91;1036817;28;20353;-44
2021/08/14 02:12:30;;;;;;;;;;;;;;;21.58;76.97;96585.13;1040948;28;19917;-44
2021/08/14 02:13:00;;;;;;;;;;;;;;;21.58;77.21;96581.66;1041050;28;19913;-44
2021/08/14 02:13:30;;;;;;;;;;;;;;;21.57;77.27;96585.38;1040956;28;19967;-45
2021/08/14 02:14:00;;;;;;;;;;;;;;;21.55;77.09;96585.63;1041131;28;19923;-46
2021/08/14 02:14:31;;;;;;;;;;;;;;;21.50;77.44;96582.09;1040848;28;19920;-49
2021/08/14 02:15:01;;;;;;;;;;;;;;;21.52;77.63;96580.00;1040983;28;19919;-46
2021/08/14 02:15:32;;;;;;;;;;;;;;;21.52;77.37;96580.00;1040855;28;20011;-49
2021/08/14 02:16:02;;;;;;;;;;;;;;;21.57;77.32;96578.16;1041170;28;19916;-48
2021/08/14 02:16:35;;;;;;;;;;;;;;;21.56;77.44;96584.59;1040910;28;19913;-47
2021/08/14 02:17:05;;;;;;;;;;;;;;;21.58;77.63;96582.44;1040999;28;19948;-48
2021/08/14 02:17:36;;;;;;;;;;;;;;;21.64;77.09;96584.09;1040860;28;19921;-49
2021/08/14 02:18:06;;;;;;;;;;;;;;;21.69;76.86;96582.53;1036738;28;19913;-45
2021/08/14 02:18:36;;;;;;;;;;;;;;;21.67;76.75;96581.97;1032432;28;19967;-48
2021/08/14 02:19:07;;;;;;;;;;;;;;;21.62;77.13;96577.38;1032439;28;19914;-49
2021/08/14 02:19:37;;;;;;;;;;;;;;;21.61;77.03;96579.25;1028489;28;20390;-47
2021/08/14 02:20:07;;;;;;;;;;;;;;;21.58;76.84;96576.28;1032569;28;19965;-49
2021/08/14 02:20:38;;;;;;;;;;;;;;;21.56;76.78;96584.59;1036557;28;20035;-49
2021/08/14 02:21:08;;;;;;;;;;;;;;;21.55;77.74;96584.84;1032475;28;19920;-47
2021/08/14 02:21:38;;;;;;;;;;;;;;;21.54;77.45;96586.69;1036616;28;19905;-44
2021/08/14 02:22:09;;;;;;;;;;;;;;;21.53;77.34;96581.59;1036616;28;19913;-49
2021/08/14 02:22:39;;;;;;;;;;;;;;;21.55;77.62;96587.53;1036632;28;20334;-48
2021/08/14 02:23:09;;;;;;;;;;;;;;;21.52;77.47;96585.34;1040904;28;19990;-49
2021/08/14 02:23:40;;;;;;;;;;;;;;;21.46;77.57;96584.44;1041006;28;19913;-48
2021/08/14 02:24:10;;;;;;;;;;;;;;;21.45;77.52;96583.66;1040873;28;19964;-45
2021/08/14 02:24:40;;;;;;;;;;;;;;;21.44;77.72;96583.91;1040772;28;19913;-46
2021/08/14 02:25:10;;;;;;;;;;;;;;;21.40;77.72;96585.47;1041074;28;19920;-44
2021/08/14 02:25:41;;;;;;;;;;;;;;;21.38;77.97;96584.91;1040990;28;19962;-44
2021/08/14 02:26:11;;;;;;;;;;;;;;;21.36;78.07;96587.03;1040898;28;19952;-44
2021/08/14 02:26:41;;;;;;;;;;;;;;;21.34;78.55;96589.97;1041008;28;19920;-45
2021/08/14 02:27:12;;;;;;;;;;;;;;;21.32;78.83;96581.38;1040906;28;20427;-44
2021/08/14 02:27:42;;;;;;;;;;;;;;;21.36;78.94;96584.34;1040751;28;19913;-45
2021/08/14 02:28:12;;;;;;;;;;;;;;;21.34;78.62;96589.97;1040953;28;19916;-45
2021/08/14 02:28:42;;;;;;;;;;;;;;;21.36;79.39;96589.69;1040932;28;20277;-45
2021/08/14 02:29:13;;;;;;;;;;;;;;;21.34;78.63;96587.28;1040892;28;19910;-44
2021/08/14 02:29:43;;;;;;;;;;;;;;;21.35;78.96;96585.41;1040998;28;19909;-44
2021/08/14 02:30:13;;;;;;;;;;;;;;;21.32;79.08;96585.91;1040914;28;19909;-45
2021/08/14 02:30:44;;;;;;;;;;;;;;;21.28;79.49;96585.59;1041061;28;19909;-44
2021/08/14 02:31:14;;;;;;;;;;;;;;;21.28;79.03;96586.41;1040940;28;20350;-44
2021/08/14 02:31:44;;;;;;;;;;;;;;;21.28;79.17;96589.09;1040925;28;19931;-45
2021/08/14 02:32:15;;;;;;;;;;;;;;;21.28;79.57;96588.28;1041001;28;19959;-45
2021/08/14 02:32:47;;;;;;;;;;;;;;;21.29;79.35;96590.72;1040959;28;20370;-46
2021/08/14 02:33:17;;;;;;;;;;;;;;;21.28;79.45;96586.41;1036551;28;19917;-44
2021/08/14 02:33:47;;;;;;;;;;;;;;;21.28;79.23;96591.75;1036534;28;19952;-44
2021/08/14 02:34:18;;;;;;;;;;;;;;;21.30;79.73;96591.50;1036493;28;19950;-45
2021/08/14 02:34:48;;;;;;;;;;;;;;;21.29;79.82;96584.56;1036864;28;19941;-45
2021/08/14 02:35:18;;;;;;;;;;;;;;;21.30;79.56;96594.19;1041012;28;19913;-47
2021/08/14 02:35:48;;;;;;;;;;;;;;;21.30;79.88;96592.34;1040887;28;20384;-44
2021/08/14 02:36:19;;;;;;;;;;;;;;;21.32;79.82;96593.94;1040961;28;19902;-45
2021/08/14 02:36:49;;;;;;;;;;;;;;;21.34;79.75;96581.91;1040831;28;19916;-46
2021/08/14 02:37:19;;;;;;;;;;;;;;;21.34;79.96;96589.16;1040864;28;19954;-46
2021/08/14 02:37:50;;;;;;;;;;;;;;;21.37;79.75;96585.97;1040885;28;19906;-46
2021/08/14 02:38:21;;;;;;;;;;;;;;;21.38;79.95;96590.25;1040976;28;19909;-46
2021/08/14 02:38:51;;;;;;;;;;;;;;;21.31;80.20;96585.09;1040855;28;20355;-44
2021/08/14 02:39:21;;;;;;;;;;;;;;;21.29;80.48;96588.03;1040912;28;19910;-47